Time;durP1;ratioP1;P1;durP2;ratioP2;P2;SDS_P1;SDS_P2;PMS_P1;PMS_P2;Temp;Humidity;BMP_temperature;BMP_pressure;BME280_temperature;BME280_humidity;BME280_pressure;Samples;Min_cycle;Max_cycle;Signal;HPM_P1;HPM_P2
2021/07/18 00:00:30;;;;;;;11.10;10.10;;;25.70;60.80;;;;;;4945561;28;20216;-46
2021/07/18 00:02:56;;;;;;;14.17;11.73;;;25.70;60.90;;;;;;4943849;28;20479;-46
2021/07/18 00:05:23;;;;;;;12.40;11.10;;;25.60;60.90;;;;;;4947864;28;20195;-46
2021/07/18 00:07:49;;;;;;;14.43;10.93;;;25.60;61.00;;;;;;4944996;28;20287;-51
2021/07/18 00:10:15;;;;;;;11.93;10.83;;;25.60;61.20;;;;;;4946456;28;20531;-47
2021/07/18 00:12:41;;;;;;;13.07;10.90;;;25.60;61.10;;;;;;4950536;28;20275;-48
2021/07/18 00:15:09;;;;;;;12.57;11.03;;;25.50;61.30;;;;;;4950555;28;20258;-46
2021/07/18 00:17:38;;;;;;;11.90;10.00;;;25.50;61.50;;;;;;4949014;28;20479;-48
2021/07/18 00:20:06;;;;;;;12.63;11.13;;;25.50;61.90;;;;;;4946108;28;21315;-49
2021/07/18 00:22:32;;;;;;;12.70;9.93;;;25.50;61.60;;;;;;4948746;28;20458;-48
2021/07/18 00:24:57;;;;;;;13.73;12.50;;;25.60;61.60;;;;;;4948591;28;20833;-46
2021/07/18 00:27:23;;;;;;;12.87;11.50;;;25.60;61.70;;;;;;4948587;28;20206;-50
2021/07/18 00:29:48;;;;;;;12.33;11.13;;;25.60;61.60;;;;;;4950205;28;20258;-46
2021/07/18 00:32:14;;;;;;;13.90;11.37;;;25.60;61.30;;;;;;4951695;28;20224;-48
2021/07/18 00:34:40;;;;;;;13.03;11.70;;;25.60;61.40;;;;;;4953386;28;20203;-48
2021/07/18 00:37:05;;;;;;;13.23;11.57;;;25.60;61.40;;;;;;4951127;28;20238;-46
2021/07/18 00:39:31;;;;;;;12.87;11.43;;;25.60;61.30;;;;;;4954359;28;20196;-50
2021/07/18 00:41:56;;;;;;;15.20;11.80;;;25.60;61.20;;;;;;4951397;28;20191;-48
2021/07/18 00:44:22;;;;;;;14.13;11.17;;;25.60;61.90;;;;;;4952042;28;20708;-47
2021/07/18 00:46:47;;;;;;;11.40;10.23;;;25.60;60.90;;;;;;4951985;28;20222;-47
2021/07/18 00:49:13;;;;;;;11.43;10.53;;;25.60;60.70;;;;;;4956620;29;20218;-46
2021/07/18 00:51:40;;;;;;;12.00;10.77;;;25.60;60.60;;;;;;4946032;28;20302;-47
2021/07/18 00:54:05;;;;;;;17.83;11.60;;;25.60;60.50;;;;;;4954393;28;20689;-45
2021/07/18 00:56:31;;;;;;;15.23;10.17;;;25.50;60.40;;;;;;4950448;28;20522;-46
2021/07/18 00:59:00;;;;;;;11.30;10.20;;;25.50;60.50;;;;;;4954861;28;20764;-46
2021/07/18 01:01:27;;;;;;;13.37;12.07;;;25.50;60.40;;;;;;4953360;28;20231;-45
2021/07/18 01:03:53;;;;;;;12.40;11.30;;;25.50;60.30;;;;;;4953191;28;20538;-46
2021/07/18 01:06:19;;;;;;;14.37;12.20;;;25.50;60.30;;;;;;4952364;28;20451;-47
2021/07/18 01:08:45;;;;;;;13.97;12.53;;;25.50;60.40;;;;;;4948250;28;20822;-46
2021/07/18 01:11:10;;;;;;;13.40;12.10;;;25.40;60.40;;;;;;4949702;28;20203;-46
2021/07/18 01:13:36;;;;;;;14.03;12.63;;;25.40;60.40;;;;;;4953406;28;20242;-46
2021/07/18 01:16:02;;;;;;;12.40;11.17;;;25.40;60.40;;;;;;4955087;29;20200;-48
2021/07/18 01:18:27;;;;;;;14.30;12.90;;;25.40;60.40;;;;;;4953537;28;20578;-45
2021/07/18 01:20:53;;;;;;;14.20;12.10;;;25.40;60.30;;;;;;4950097;28;20635;-48
2021/07/18 01:23:19;;;;;;;13.10;11.90;;;25.40;60.60;;;;;;4950821;28;20202;-46
2021/07/18 01:25:45;;;;;;;20.33;13.10;;;25.30;60.50;;;;;;4953147;28;20232;-46
2021/07/18 01:28:13;;;;;;;14.47;12.40;;;25.30;60.60;;;;;;4953621;28;20205;-46
2021/07/18 01:30:40;;;;;;;13.17;11.97;;;25.30;60.80;;;;;;4953022;28;20475;-47
2021/07/18 01:33:06;;;;;;;14.37;12.23;;;25.30;60.70;;;;;;4950420;28;20490;-45
2021/07/18 01:35:32;;;;;;;15.00;13.60;;;25.30;60.70;;;;;;4952352;28;20502;-46
2021/07/18 01:37:58;;;;;;;13.23;11.93;;;25.20;60.40;;;;;;4951304;28;20612;-45
2021/07/18 01:40:24;;;;;;;13.07;11.87;;;25.20;60.50;;;;;;4953044;28;20264;-46
2021/07/18 01:42:54;;;;;;;13.17;11.83;;;25.30;60.70;;;;;;4952908;28;20451;-46
2021/07/18 01:45:19;;;;;;;12.67;11.50;;;25.20;60.70;;;;;;4951491;28;20448;-46
2021/07/18 01:47:46;;;;;;;14.70;13.10;;;25.20;60.70;;;;;;4954334;29;21010;-46
2021/07/18 01:50:12;;;;;;;12.40;11.40;;;25.20;60.40;;;;;;4948843;28;20212;-46
2021/07/18 01:52:38;;;;;;;13.07;11.97;;;25.20;60.40;;;;;;4949151;28;20509;-48
2021/07/18 01:55:04;;;;;;;13.37;11.97;;;25.10;60.30;;;;;;4949516;28;20443;-48
2021/07/18 01:57:29;;;;;;;13.80;11.43;;;25.00;60.40;;;;;;4951532;28;20200;-51
2021/07/18 01:59:55;;;;;;;13.30;10.47;;;25.00;60.50;;;;;;4952851;28;20927;-49
2021/07/18 02:02:21;;;;;;;13.33;11.93;;;25.00;60.70;;;;;;4950832;28;20625;-46
2021/07/18 02:04:48;;;;;;;13.27;11.00;;;25.00;60.60;;;;;;4949939;28;20675;-46
2021/07/18 02:07:13;;;;;;;13.13;11.80;;;25.00;60.50;;;;;;4953327;28;20566;-47
2021/07/18 02:09:39;;;;;;;12.27;11.07;;;25.00;60.60;;;;;;4945724;28;20455;-46
2021/07/18 02:12:06;;;;;;;11.37;10.37;;;25.00;60.40;;;;;;4948092;28;20608;-46
2021/07/18 02:14:33;;;;;;;12.60;11.40;;;25.00;60.20;;;;;;4946953;28;20196;-50
2021/07/18 02:16:59;;;;;;;12.37;11.17;;;25.00;60.30;;;;;;4949336;28;20440;-49
2021/07/18 02:19:29;;;;;;;12.83;11.70;;;25.00;60.00;;;;;;4950059;28;20870;-48
2021/07/18 02:21:55;;;;;;;12.10;11.07;;;24.90;59.70;;;;;;4948267;28;20672;-51
2021/07/18 02:24:21;;;;;;;13.10;11.90;;;24.90;59.80;;;;;;4950591;28;20522;-47
2021/07/18 02:26:47;;;;;;;12.07;10.87;;;24.90;59.90;;;;;;4946135;28;20464;-47
2021/07/18 02:29:12;;;;;;;12.07;10.70;;;24.90;60.00;;;;;;4947842;28;20204;-49
2021/07/18 02:31:38;;;;;;;13.00;11.70;;;24.80;59.90;;;;;;4951560;28;20200;-51
2021/07/18 02:34:04;;;;;;;11.40;10.40;;;24.80;59.90;;;;;;4947333;28;20236;-48
2021/07/18 02:36:31;;;;;;;12.13;10.97;;;24.80;60.10;;;;;;4949264;28;20196;-47
2021/07/18 02:38:56;;;;;;;11.60;10.50;;;24.80;60.10;;;;;;4956115;28;21282;-49
2021/07/18 02:41:22;;;;;;;15.73;10.90;;;24.80;60.00;;;;;;4951578;28;20447;-50
2021/07/18 02:43:48;;;;;;;12.40;11.20;;;24.80;60.00;;;;;;4948355;28;20200;-46
2021/07/18 02:46:13;;;;;;;13.10;9.60;;;24.80;60.10;;;;;;4946416;28;20283;-47
2021/07/18 02:48:39;;;;;;;13.30;12.00;;;24.80;59.80;;;;;;4950306;28;20192;-47
2021/07/18 02:51:05;;;;;;;13.13;10.73;;;24.70;59.70;;;;;;4952465;28;20646;-51
2021/07/18 02:53:31;;;;;;;12.47;11.00;;;24.70;60.40;;;;;;4952968;28;20676;-47
2021/07/18 02:55:57;;;;;;;10.67;9.03;;;24.70;59.80;;;;;;4949548;28;20459;-46
2021/07/18 02:58:22;;;;;;;12.67;11.47;;;24.70;60.10;;;;;;4952829;28;21006;-49
2021/07/18 03:00:48;;;;;;;12.20;11.10;;;24.60;59.70;;;;;;4947701;28;20200;-52
2021/07/18 03:03:13;;;;;;;12.00;9.80;;;24.60;59.30;;;;;;4952419;28;20208;-49
2021/07/18 03:05:39;;;;;;;11.53;10.33;;;24.50;59.20;;;;;;4950017;28;20656;-49
2021/07/18 03:08:05;;;;;;;11.50;10.33;;;24.40;59.40;;;;;;4949427;28;20238;-47
2021/07/18 03:10:30;;;;;;;13.03;10.60;;;24.30;59.60;;;;;;4949245;28;20200;-49
2021/07/18 03:12:56;;;;;;;11.50;9.97;;;24.10;59.70;;;;;;4948915;28;20231;-49
2021/07/18 03:15:22;;;;;;;10.10;9.20;;;24.00;59.90;;;;;;4948967;28;20677;-50
2021/07/18 03:17:47;;;;;;;15.20;11.03;;;24.00;60.00;;;;;;4947971;28;20233;-48
2021/07/18 03:20:16;;;;;;;11.03;9.93;;;23.90;59.90;;;;;;4946457;28;20203;-48
2021/07/18 03:22:42;;;;;;;10.50;9.40;;;23.90;60.00;;;;;;4949096;29;20505;-47
2021/07/18 03:25:09;;;;;;;10.70;9.70;;;23.80;60.10;;;;;;4947291;28;20998;-47
2021/07/18 03:27:35;;;;;;;12.17;10.27;;;23.80;60.10;;;;;;4951207;28;20879;-52
2021/07/18 03:30:01;;;;;;;10.33;9.33;;;23.70;60.10;;;;;;4952146;28;20530;-46
2021/07/18 03:32:27;;;;;;;11.27;10.17;;;23.70;60.40;;;;;;4948716;28;20971;-51
2021/07/18 03:34:54;;;;;;;12.63;8.70;;;23.60;60.00;;;;;;4951085;28;20567;-47
2021/07/18 03:37:20;;;;;;;13.83;10.17;;;23.60;59.90;;;;;;4946983;28;20568;-47
2021/07/18 03:39:45;;;;;;;9.40;8.60;;;23.50;59.80;;;;;;4947740;28;20451;-48
2021/07/18 03:42:11;;;;;;;11.50;10.40;;;23.50;59.80;;;;;;4949689;28;20453;-46
2021/07/18 03:44:39;;;;;;;10.23;9.23;;;23.50;60.40;;;;;;4950361;28;20222;-45
2021/07/18 03:47:05;;;;;;;16.33;10.10;;;23.50;60.40;;;;;;4947657;28;20210;-46
2021/07/18 03:49:31;;;;;;;12.20;9.97;;;23.50;60.60;;;;;;4951522;28;20457;-46
2021/07/18 03:51:57;;;;;;;12.47;11.17;;;23.50;60.40;;;;;;4949742;28;20452;-47
2021/07/18 03:54:23;;;;;;;12.03;10.43;;;23.40;60.00;;;;;;4948451;28;20463;-47
2021/07/18 03:56:48;;;;;;;11.33;10.20;;;23.40;60.30;;;;;;4947843;28;20200;-49
2021/07/18 03:59:14;;;;;;;11.27;9.87;;;23.40;60.70;;;;;;4950097;28;21018;-48
2021/07/18 04:01:39;;;;;;;11.50;10.40;;;23.40;60.60;;;;;;4949661;28;20557;-46
2021/07/18 04:04:05;;;;;;;11.73;10.63;;;23.30;60.40;;;;;;4950394;28;20199;-46
2021/07/18 04:06:31;;;;;;;13.03;10.37;;;23.30;60.50;;;;;;4950264;28;20196;-46
2021/07/18 04:08:56;;;;;;;11.70;10.57;;;23.30;60.90;;;;;;4947590;28;20576;-46
2021/07/18 04:11:22;;;;;;;11.27;9.70;;;23.30;61.00;;;;;;4950326;28;20214;-46
2021/07/18 04:13:48;;;;;;;12.80;11.63;;;23.30;61.00;;;;;;4950910;28;20224;-47
2021/07/18 04:16:14;;;;;;;14.97;10.83;;;23.20;60.80;;;;;;4945332;28;20443;-51
2021/07/18 04:18:40;;;;;;;12.17;9.70;;;23.20;61.40;;;;;;4946952;28;20260;-46
2021/07/18 04:21:05;;;;;;;13.67;9.30;;;23.20;60.70;;;;;;4945660;28;20250;-46
2021/07/18 04:23:31;;;;;;;10.77;9.60;;;23.10;61.00;;;;;;4951806;28;20209;-47
2021/07/18 04:25:57;;;;;;;13.17;8.53;;;23.10;61.30;;;;;;4946265;28;20192;-47
2021/07/18 04:28:23;;;;;;;8.93;8.10;;;23.10;61.40;;;;;;4949361;28;20293;-52
2021/07/18 04:30:48;;;;;;;14.53;8.23;;;23.10;61.60;;;;;;4942935;28;20955;-50
2021/07/18 04:33:14;;;;;;;9.20;8.20;;;23.10;61.50;;;;;;4948410;28;20227;-47
2021/07/18 04:35:41;;;;;;;9.03;8.23;;;23.10;61.40;;;;;;4946983;28;20200;-51
2021/07/18 04:38:06;;;;;;;9.60;8.63;;;23.10;61.40;;;;;;4950759;28;20206;-51
2021/07/18 04:40:33;;;;;;;8.70;8.00;;;23.00;61.20;;;;;;4946177;28;20451;-47
2021/07/18 04:42:59;;;;;;;9.50;8.00;;;23.00;61.20;;;;;;4948167;28;20199;-50
2021/07/18 04:45:25;;;;;;;11.30;8.47;;;23.10;61.20;;;;;;4945333;28;20445;-51
2021/07/18 04:47:57;;;;;;;10.23;8.40;;;23.10;61.10;;;;;;4949422;28;20278;-50
2021/07/18 04:50:24;;;;;;;11.53;8.70;;;23.00;61.20;;;;;;4948712;28;21093;-50
2021/07/18 04:52:50;;;;;;;11.07;8.03;;;23.10;63.40;;;;;;4950820;28;20503;-48
2021/07/18 04:55:18;;;;;;;9.77;7.50;;;23.20;64.00;;;;;;4950767;29;20435;-46
2021/07/18 04:57:44;;;;;;;9.67;7.90;;;23.30;63.90;;;;;;4950797;28;20957;-52
2021/07/18 05:00:28;;;;;;;8.43;7.67;;;23.50;63.50;;;;;;4949119;28;20459;-49
2021/07/18 05:02:54;;;;;;;8.37;7.67;;;23.60;63.20;;;;;;4951445;28;20278;-51
2021/07/18 05:05:20;;;;;;;7.80;7.10;;;23.70;62.90;;;;;;4947780;28;20540;-45
2021/07/18 05:07:54;;;;;;;8.37;6.90;;;23.90;62.70;;;;;;4950550;28;20518;-50
2021/07/18 05:10:23;;;;;;;7.87;6.80;;;23.90;62.30;;;;;;4948865;28;20443;-51
2021/07/18 05:12:50;;;;;;;7.87;7.17;;;24.00;61.80;;;;;;4950515;28;20514;-47
2021/07/18 05:15:17;;;;;;;6.87;5.93;;;24.10;61.40;;;;;;4953674;28;20454;-47
2021/07/18 05:17:43;;;;;;;7.10;6.40;;;24.10;61.00;;;;;;4950536;29;20482;-48
2021/07/18 05:20:10;;;;;;;7.30;6.40;;;24.20;60.70;;;;;;4947761;28;21140;-50
2021/07/18 05:22:36;;;;;;;8.80;5.67;;;24.20;60.60;;;;;;4947759;28;20266;-48
2021/07/18 05:25:04;;;;;;;8.33;6.77;;;24.30;60.70;;;;;;4949399;28;20447;-50
2021/07/18 05:27:29;;;;;;;6.57;5.77;;;24.40;60.40;;;;;;4952042;28;20474;-48
2021/07/18 05:29:55;;;;;;;6.63;6.00;;;24.30;58.80;;;;;;4951360;28;20474;-50
2021/07/18 05:32:20;;;;;;;5.33;4.83;;;24.30;59.00;;;;;;4949255;28;20248;-48
2021/07/18 05:34:46;;;;;;;5.47;4.77;;;24.40;58.10;;;;;;4958250;28;20234;-47
2021/07/18 05:37:12;;;;;;;8.27;5.80;;;24.30;57.30;;;;;;4953588;28;20196;-46
2021/07/18 05:39:38;;;;;;;8.33;5.00;;;24.40;59.90;;;;;;4953112;28;20539;-46
2021/07/18 05:42:03;;;;;;;7.07;4.90;;;24.40;59.20;;;;;;4952895;28;20203;-51
2021/07/18 05:44:31;;;;;;;6.77;4.10;;;24.50;58.40;;;;;;4942300;28;20560;-48
2021/07/18 05:46:56;;;;;;;5.10;4.37;;;24.50;57.30;;;;;;4949987;28;20203;-49
2021/07/18 05:49:22;;;;;;;5.57;4.63;;;24.50;57.10;;;;;;4950167;28;20443;-50
2021/07/18 05:51:47;;;;;;;4.73;4.20;;;24.40;57.00;;;;;;4950211;28;20319;-51
2021/07/18 05:54:13;;;;;;;5.23;4.10;;;24.40;57.30;;;;;;4952842;28;20253;-47
2021/07/18 05:56:39;;;;;;;5.43;4.17;;;24.30;57.00;;;;;;4953395;28;20208;-47
2021/07/18 05:59:04;;;;;;;8.90;4.30;;;24.40;57.20;;;;;;4956785;28;20648;-51
2021/07/18 06:01:30;;;;;;;8.90;3.80;;;24.30;57.00;;;;;;4953387;29;20255;-50
2021/07/18 06:03:56;;;;;;;3.97;3.67;;;24.40;57.10;;;;;;4954254;29;20967;-51
2021/07/18 06:06:21;;;;;;;4.37;3.97;;;24.50;57.10;;;;;;4953105;29;20200;-49
2021/07/18 06:08:47;;;;;;;8.40;3.80;;;24.50;56.60;;;;;;4954809;29;20988;-50
2021/07/18 06:11:13;;;;;;;6.63;3.47;;;24.50;56.30;;;;;;4953201;29;20211;-50
2021/07/18 06:13:39;;;;;;;4.10;3.70;;;24.50;56.20;;;;;;4951377;29;20260;-50
2021/07/18 06:16:05;;;;;;;6.07;3.70;;;24.50;56.00;;;;;;4953554;28;20196;-46
2021/07/18 06:18:31;;;;;;;3.90;3.50;;;24.50;56.30;;;;;;4954040;29;20506;-52
2021/07/18 06:20:56;;;;;;;4.03;3.10;;;24.60;55.70;;;;;;4952715;29;20534;-51
2021/07/18 06:23:22;;;;;;;3.97;2.97;;;24.70;55.70;;;;;;4954141;28;20183;-50
2021/07/18 06:25:47;;;;;;;5.83;3.20;;;24.70;55.20;;;;;;4953080;28;20275;-49
2021/07/18 06:28:13;;;;;;;3.30;3.00;;;24.70;55.30;;;;;;4952482;29;20211;-47
2021/07/18 06:30:39;;;;;;;5.13;3.33;;;24.70;55.10;;;;;;4952283;29;20250;-46
2021/07/18 06:33:05;;;;;;;5.33;3.07;;;24.80;55.30;;;;;;4954075;28;20235;-49
2021/07/18 06:35:30;;;;;;;3.07;2.87;;;24.90;55.20;;;;;;4952949;28;20805;-46
2021/07/18 06:37:56;;;;;;;4.60;3.40;;;25.00;55.10;;;;;;4951653;29;20668;-47
2021/07/18 06:40:21;;;;;;;3.47;3.17;;;25.10;55.30;;;;;;4952062;29;20206;-47
2021/07/18 06:42:47;;;;;;;8.43;3.00;;;25.30;55.60;;;;;;4954309;29;20206;-46
2021/07/18 06:45:15;;;;;;;3.23;2.87;;;25.40;55.60;;;;;;4949646;28;20204;-53
2021/07/18 06:47:41;;;;;;;3.83;3.03;;;25.50;53.70;;;;;;4952425;28;20195;-47
2021/07/18 06:50:07;;;;;;;3.97;3.00;;;25.60;53.50;;;;;;4952966;29;20836;-45
2021/07/18 06:52:33;;;;;;;3.07;2.77;;;25.60;52.40;;;;;;4951037;28;20224;-47
2021/07/18 06:54:58;;;;;;;2.60;2.20;;;25.40;51.50;;;;;;4949339;29;20491;-46
2021/07/18 06:57:24;;;;;;;2.90;2.70;;;25.40;52.90;;;;;;4952727;28;20653;-46
2021/07/18 06:59:50;;;;;;;3.20;2.90;;;25.50;53.60;;;;;;4951961;29;20196;-48
2021/07/18 07:02:16;;;;;;;3.00;2.70;;;25.60;53.00;;;;;;4951405;29;20188;-49
2021/07/18 07:04:42;;;;;;;3.90;2.73;;;25.70;52.80;;;;;;4951754;29;20440;-52
2021/07/18 07:07:08;;;;;;;4.80;3.10;;;25.90;51.90;;;;;;4946823;29;20570;-49
2021/07/18 07:09:33;;;;;;;3.87;2.77;;;25.80;51.60;;;;;;4952057;29;20448;-52
2021/07/18 07:11:59;;;;;;;4.77;4.03;;;25.90;51.70;;;;;;4951555;28;20656;-50
2021/07/18 07:14:25;;;;;;;3.40;2.80;;;25.90;51.70;;;;;;4952375;29;20200;-49
2021/07/18 07:16:50;;;;;;;3.20;2.90;;;26.00;51.80;;;;;;4951807;29;20200;-47
2021/07/18 07:19:16;;;;;;;3.27;2.47;;;26.10;52.40;;;;;;4952684;28;20244;-52
2021/07/18 07:21:41;;;;;;;3.17;2.87;;;26.30;51.10;;;;;;4949081;28;20193;-50
2021/07/18 07:24:07;;;;;;;2.87;2.67;;;26.50;51.30;;;;;;4941557;29;20197;-47
2021/07/18 07:26:33;;;;;;;2.80;2.10;;;26.60;51.00;;;;;;4948230;29;20196;-50
2021/07/18 07:28:59;;;;;;;3.23;2.80;;;26.70;50.90;;;;;;4948603;29;20224;-47
2021/07/18 07:31:25;;;;;;;4.10;2.40;;;26.90;50.40;;;;;;4943487;29;20197;-46
2021/07/18 07:33:50;;;;;;;3.07;2.60;;;27.00;50.90;;;;;;4941207;29;20232;-51
2021/07/18 07:36:17;;;;;;;4.77;2.70;;;27.10;50.90;;;;;;4947056;28;20652;-51
2021/07/18 07:38:43;;;;;;;3.90;2.57;;;27.30;49.80;;;;;;4953999;29;20203;-48
2021/07/18 07:41:09;;;;;;;2.73;2.53;;;27.40;49.90;;;;;;4934967;29;20444;-52
2021/07/18 07:43:34;;;;;;;3.47;2.83;;;27.40;49.90;;;;;;4934604;29;20244;-52
2021/07/18 07:46:01;;;;;;;3.13;2.40;;;27.40;50.20;;;;;;4952080;29;20195;-48
2021/07/18 07:48:26;;;;;;;3.60;2.10;;;27.50;49.80;;;;;;4953982;29;20211;-50
2021/07/18 07:50:52;;;;;;;4.23;2.90;;;27.70;48.90;;;;;;4945734;29;20444;-48
2021/07/18 07:53:19;;;;;;;2.90;2.50;;;27.80;50.30;;;;;;4934737;29;20239;-52
2021/07/18 07:55:44;;;;;;;2.93;2.67;;;28.00;49.10;;;;;;4946828;28;20474;-51
2021/07/18 07:58:11;;;;;;;3.03;2.83;;;28.00;50.20;;;;;;4953714;28;20431;-52
2021/07/18 08:00:37;;;;;;;4.13;2.40;;;28.10;48.80;;;;;;4944397;29;20220;-49
2021/07/18 08:03:03;;;;;;;3.30;3.00;;;28.20;48.10;;;;;;4934096;29;20444;-49
2021/07/18 08:05:29;;;;;;;3.20;2.87;;;28.20;48.90;;;;;;4946011;28;20455;-51
2021/07/18 08:07:54;;;;;;;6.30;3.20;;;28.30;49.00;;;;;;4949332;29;20861;-50
2021/07/18 08:10:21;;;;;;;3.40;3.03;;;28.40;48.30;;;;;;4951440;29;20279;-52
2021/07/18 08:12:48;;;;;;;4.50;2.27;;;28.50;48.20;;;;;;4953233;29;20211;-50
2021/07/18 08:15:15;;;;;;;4.17;2.57;;;28.60;47.50;;;;;;4949043;29;20466;-53
2021/07/18 08:17:42;;;;;;;6.97;2.70;;;28.80;47.80;;;;;;4951728;29;20468;-52
2021/07/18 08:20:16;;;;;;;6.73;2.70;;;28.90;46.80;;;;;;4946888;28;20481;-52
2021/07/18 08:22:45;;;;;;;4.40;3.17;;;28.90;47.10;;;;;;4934463;29;20519;-47
2021/07/18 08:25:11;;;;;;;3.83;2.43;;;28.90;46.70;;;;;;4949778;29;20443;-52
2021/07/18 08:27:38;;;;;;;5.73;2.80;;;28.90;47.70;;;;;;4952787;29;20507;-51
2021/07/18 08:30:05;;;;;;;3.10;2.63;;;29.00;48.10;;;;;;4952402;29;20439;-50
2021/07/18 08:32:31;;;;;;;7.37;2.57;;;29.10;48.00;;;;;;4952831;29;20291;-52
2021/07/18 08:34:56;;;;;;;4.30;2.67;;;29.30;48.00;;;;;;4946654;29;20429;-51
2021/07/18 08:37:22;;;;;;;2.77;2.57;;;29.40;47.90;;;;;;4943829;29;20196;-49
2021/07/18 08:39:47;;;;;;;5.70;2.73;;;29.50;47.10;;;;;;4950365;28;20227;-52
2021/07/18 08:42:15;;;;;;;2.90;2.70;;;29.50;45.40;;;;;;4940325;29;20247;-49
2021/07/18 08:44:42;;;;;;;6.30;3.47;;;29.50;46.60;;;;;;4936985;29;20295;-51
2021/07/18 08:47:08;;;;;;;4.10;2.90;;;29.50;46.90;;;;;;4942663;28;20424;-52
2021/07/18 08:49:33;;;;;;;3.57;2.80;;;29.60;46.90;;;;;;4956082;28;20450;-52
2021/07/18 08:52:00;;;;;;;4.63;3.03;;;29.70;47.60;;;;;;4944299;28;20249;-50
2021/07/18 08:54:26;;;;;;;5.53;3.00;;;29.80;46.50;;;;;;4956614;28;20239;-52
2021/07/18 08:56:53;;;;;;;3.10;2.50;;;30.00;45.50;;;;;;4955899;29;20434;-51
2021/07/18 08:59:19;;;;;;;3.37;2.70;;;30.10;45.60;;;;;;4955861;28;20439;-50
2021/07/18 09:01:45;;;;;;;4.10;3.20;;;30.10;45.70;;;;;;4956374;29;20946;-52
2021/07/18 09:04:11;;;;;;;2.80;2.60;;;30.30;45.00;;;;;;4956320;28;20203;-51
2021/07/18 09:06:47;;;;;;;4.97;2.93;;;30.30;43.90;;;;;;4951594;29;20203;-52
2021/07/18 09:09:19;;;;;;;6.23;2.83;;;30.40;44.40;;;;;;4947785;29;20617;-52
2021/07/18 09:11:56;;;;;;;4.27;3.23;;;30.40;44.50;;;;;;4935088;29;20436;-51
2021/07/18 09:14:22;;;;;;;3.17;2.80;;;30.50;45.90;;;;;;4955742;29;20911;-51
2021/07/18 09:16:50;;;;;;;3.40;3.00;;;30.60;44.90;;;;;;4939117;29;20467;-49
2021/07/18 09:19:20;;;;;;;4.63;3.13;;;30.70;44.60;;;;;;4954110;29;20232;-50
2021/07/18 09:22:18;;;;;;;3.50;2.50;;;30.80;44.50;;;;;;4938223;29;20455;-50
2021/07/18 09:25:00;;;;;;;4.57;2.40;;;30.90;44.40;;;;;;4952807;29;20448;-50
2021/07/18 09:27:25;;;;;;;3.13;2.80;;;31.10;45.00;;;;;;4954874;28;20973;-47
2021/07/18 09:30:07;;;;;;;4.00;2.87;;;31.10;43.90;;;;;;4937821;29;20432;-50
2021/07/18 09:32:35;;;;;;;5.80;2.53;;;31.40;43.50;;;;;;4941598;29;20227;-52
2021/07/18 09:35:05;;;;;;;3.30;2.60;;;31.40;42.80;;;;;;4956076;29;20449;-53
2021/07/18 09:37:33;;;;;;;5.00;2.63;;;31.50;42.40;;;;;;4953055;28;20808;-48
2021/07/18 09:40:17;;;;;;;3.97;2.93;;;31.40;42.60;;;;;;4949238;28;20443;-51
2021/07/18 09:42:45;;;;;;;4.10;2.13;;;31.20;42.20;;;;;;4954327;28;20526;-50
2021/07/18 09:45:29;;;;;;;3.67;2.83;;;31.00;43.90;;;;;;4953550;29;20447;-51
2021/07/18 09:48:06;;;;;;;5.07;2.60;;;31.10;43.90;;;;;;4952437;28;20443;-53
2021/07/18 09:50:33;;;;;;;3.70;2.40;;;31.20;43.60;;;;;;4948619;29;20571;-51
2021/07/18 09:53:15;;;;;;;3.87;2.20;;;31.40;43.10;;;;;;4954269;29;20502;-51
2021/07/18 09:56:06;;;;;;;7.43;2.40;;;31.60;42.90;;;;;;4949985;29;20447;-52
2021/07/18 09:58:32;;;;;;;2.93;2.37;;;31.70;43.00;;;;;;4946581;28;20998;-49
2021/07/18 10:01:00;;;;;;;3.13;2.60;;;31.70;42.10;;;;;;4954502;29;20461;-51
2021/07/18 10:03:27;;;;;;;4.30;3.20;;;31.70;43.80;;;;;;4955267;29;20428;-49
2021/07/18 10:06:07;;;;;;;4.20;2.87;;;31.90;43.00;;;;;;4951539;29;20452;-53
2021/07/18 10:08:34;;;;;;;3.23;2.87;;;32.10;41.80;;;;;;4945206;29;20444;-47
2021/07/18 10:11:00;;;;;;;6.63;2.93;;;32.10;41.90;;;;;;4953310;29;20486;-47
2021/07/18 10:13:26;;;;;;;3.60;2.47;;;32.10;42.30;;;;;;4952046;29;20975;-52
2021/07/18 10:15:52;;;;;;;3.80;2.37;;;32.10;41.90;;;;;;4953341;29;20268;-49
2021/07/18 10:18:18;;;;;;;3.33;2.67;;;32.20;42.30;;;;;;4951863;29;20228;-47
2021/07/18 10:20:45;;;;;;;2.60;2.30;;;32.30;41.40;;;;;;4950369;29;20287;-51
2021/07/18 10:23:11;;;;;;;7.37;2.70;;;32.50;41.70;;;;;;4954500;29;20444;-49
2021/07/18 10:25:38;;;;;;;4.27;2.80;;;32.60;43.50;;;;;;4953125;29;20443;-49
2021/07/18 10:28:04;;;;;;;3.87;2.50;;;32.80;41.60;;;;;;4951395;28;20431;-49
2021/07/18 10:30:34;;;;;;;4.33;2.40;;;33.00;40.60;;;;;;4952366;29;20781;-52
2021/07/18 10:33:01;;;;;;;2.63;2.23;;;33.00;41.00;;;;;;4953222;28;20232;-49
2021/07/18 10:35:29;;;;;;;3.23;2.90;;;33.00;41.30;;;;;;4951700;28;20822;-49
2021/07/18 10:38:12;;;;;;;4.00;2.40;;;33.30;40.30;;;;;;4952948;29;20435;-52
2021/07/18 10:40:46;;;;;;;6.60;2.90;;;33.40;41.80;;;;;;4952250;29;20450;-48
2021/07/18 10:43:40;;;;;;;2.80;2.37;;;33.70;41.50;;;;;;4951418;29;20443;-48
2021/07/18 10:46:11;;;;;;;4.80;3.03;;;33.80;40.30;;;;;;4953534;28;20463;-52
2021/07/18 10:48:41;;;;;;;3.17;2.80;;;33.90;37.00;;;;;;4952959;28;20483;-51
2021/07/18 10:51:07;;;;;;;5.93;2.90;;;34.00;36.40;;;;;;4948763;29;20429;-52
2021/07/18 10:53:35;;;;;;;6.07;2.77;;;33.90;38.20;;;;;;4953937;29;20565;-50
2021/07/18 10:56:01;;;;;;;3.03;2.73;;;33.90;38.00;;;;;;4942967;29;20674;-48
2021/07/18 10:58:39;;;;;;;3.10;2.20;;;33.90;38.40;;;;;;4953331;29;20435;-51
2021/07/18 11:01:10;;;;;;;5.03;3.13;;;34.00;37.10;;;;;;4952831;28;20447;-48
2021/07/18 11:03:43;;;;;;;3.43;2.83;;;33.80;37.90;;;;;;4951674;29;20506;-48
2021/07/18 11:06:29;;;;;;;2.60;2.13;;;33.70;37.60;;;;;;4950509;29;20538;-49
2021/07/18 11:09:11;;;;;;;4.03;2.23;;;33.80;38.50;;;;;;4945556;29;20469;-47
2021/07/18 11:11:42;;;;;;;3.87;2.67;;;34.00;37.50;;;;;;4946023;28;20534;-48
2021/07/18 11:14:31;;;;;;;4.30;3.30;;;34.20;37.50;;;;;;4946972;28;20655;-49
2021/07/18 11:16:59;;;;;;;4.73;3.17;;;34.40;36.40;;;;;;4952122;28;20426;-49
2021/07/18 11:19:37;;;;;;;4.87;2.77;;;34.50;36.70;;;;;;4950297;29;20451;-49
2021/07/18 11:22:04;;;;;;;6.03;2.90;;;34.20;37.90;;;;;;4952322;29;20458;-47
2021/07/18 11:24:55;;;;;;;3.20;2.60;;;34.30;37.10;;;;;;4951092;29;20452;-47
2021/07/18 11:27:33;;;;;;;2.30;2.10;;;34.50;36.90;;;;;;4951575;29;20474;-48
2021/07/18 11:30:01;;;;;;;2.73;2.43;;;34.50;37.10;;;;;;4951056;29;20443;-49
2021/07/18 11:32:28;;;;;;;5.47;2.80;;;34.60;37.70;;;;;;4952719;29;20463;-48
2021/07/18 11:34:56;;;;;;;4.53;2.80;;;34.60;37.60;;;;;;4946640;29;20483;-48
2021/07/18 11:37:25;;;;;;;2.60;2.40;;;34.60;37.90;;;;;;4951382;28;20479;-48
2021/07/18 11:39:58;;;;;;;3.37;2.70;;;34.60;37.60;;;;;;4951109;29;20468;-48
2021/07/18 11:42:26;;;;;;;5.50;2.97;;;34.70;35.80;;;;;;4952692;28;20452;-47
2021/07/18 11:44:52;;;;;;;4.10;2.93;;;34.80;35.90;;;;;;4933561;29;20433;-48
2021/07/18 11:47:23;;;;;;;4.03;3.00;;;34.80;36.30;;;;;;4948199;28;20445;-48
2021/07/18 11:49:51;;;;;;;3.03;2.73;;;34.80;35.40;;;;;;4934206;29;20512;-47
2021/07/18 11:52:18;;;;;;;6.00;2.83;;;34.90;36.10;;;;;;4945686;29;20468;-47
2021/07/18 11:54:44;;;;;;;4.50;3.27;;;35.10;36.40;;;;;;4953094;29;20807;-49
2021/07/18 11:57:13;;;;;;;5.13;3.47;;;35.20;35.30;;;;;;4935643;29;20436;-49
2021/07/18 11:59:40;;;;;;;5.03;3.37;;;35.10;36.40;;;;;;4941596;29;20983;-49
2021/07/18 12:02:07;;;;;;;3.20;2.87;;;34.90;35.20;;;;;;4934539;29;20799;-49
2021/07/18 12:04:34;;;;;;;3.90;3.17;;;34.90;35.40;;;;;;4946920;28;20475;-51
2021/07/18 12:07:03;;;;;;;5.43;4.40;;;34.90;34.90;;;;;;4951639;28;20893;-48
2021/07/18 12:09:47;;;;;;;6.40;4.50;;;35.10;36.30;;;;;;4945534;29;20439;-47
2021/07/18 12:12:15;;;;;;;5.93;4.50;;;35.20;34.40;;;;;;4942224;28;20905;-48
2021/07/18 12:14:42;;;;;;;5.23;4.80;;;35.20;34.80;;;;;;4953536;28;20439;-48
2021/07/18 12:17:10;;;;;;;7.20;5.63;;;35.00;36.70;;;;;;4951995;29;20450;-47
2021/07/18 12:19:38;;;;;;;8.23;5.73;;;34.80;35.90;;;;;;4952162;28;20531;-48
2021/07/18 12:22:09;;;;;;;8.83;5.30;;;34.90;35.50;;;;;;4951092;28;21261;-48
2021/07/18 12:24:42;;;;;;;7.03;5.87;;;34.90;35.30;;;;;;4953002;28;20440;-50
2021/07/18 12:27:15;;;;;;;6.80;6.17;;;35.10;36.10;;;;;;4951110;28;20448;-48
2021/07/18 12:29:56;;;;;;;7.80;6.03;;;34.80;34.70;;;;;;4952789;28;20463;-48
2021/07/18 12:32:26;;;;;;;6.30;5.70;;;35.00;34.80;;;;;;4947522;29;20448;-48
2021/07/18 12:34:54;;;;;;;6.90;6.30;;;35.30;35.70;;;;;;4952804;28;20432;-48
2021/07/18 12:37:25;;;;;;;7.20;5.67;;;35.60;36.00;;;;;;4949933;28;20440;-48
2021/07/18 12:39:51;;;;;;;11.07;7.47;;;35.70;36.30;;;;;;4952600;28;20439;-48
2021/07/18 12:42:30;;;;;;;8.23;7.43;;;35.50;34.30;;;;;;4963236;28;20860;-51